WetterOnline ( https://www.wetteronline.at )

Wetter aktuell Schenefeld

Aktuelles Wetter: Quickborn (17m)

6-stündlich | Neueste Meldungen
Ortszeit Temperatur Wetter
Do, 23.05. 8:00 9.2° C wolkenlos
Do, 23.05. 2:00 4.6° C Nebel
Mi, 22.05. 20:00 12.0° C leicht bewölkt
Mi, 22.05. 14:00 11.7° C bedeckt
Mi, 22.05. 8:00 10.5° C leichter Regen
Mi, 22.05. 2:00 11.2° C leichter Regen
Di, 21.05. 20:00 12.9° C Regen
Di, 21.05. 14:00 16.7° C bedeckt
Ortszeit Temperatur Wetter
Do, 23.05. 8:30 10.8° C fast wolkenlos
Do, 23.05. 8:20 10.8° C fast wolkenlos
Do, 23.05. 8:10 10.6° C leicht bewölkt
Do, 23.05. 8:00 9.2° C wolkenlos
Do, 23.05. 7:50 9.2° C wolkenlos
Do, 23.05. 7:40 8.8° C wolkenlos
Do, 23.05. 7:30 8.1° C leicht bewölkt
Do, 23.05. 7:00 6.3° C wolkig
Do, 23.05. 6:30 4.3° C Nebel
Do, 23.05. 6:00 3.1° C Nebel
Do, 23.05. 5:30 3.4° C Nebel
Ortszeit Relative Feuchte Sichtweite
Do, 23.05. 8:00 86% 17 km
Do, 23.05. 2:00 99% 0.2 km
Mi, 22.05. 20:00 72% 50 km
Mi, 22.05. 14:00 79% 30 km
Mi, 22.05. 8:00 94% 6 km
Mi, 22.05. 2:00 95% 13 km
Di, 21.05. 20:00 96% 4.4 km
Di, 21.05. 14:00 82% 18 km
Ortszeit Relative Feuchte Sichtweite
Do, 23.05. 8:30 77% 25 km
Do, 23.05. 8:20 77% -
Do, 23.05. 8:10 83% -
Do, 23.05. 8:00 86% 17 km
Do, 23.05. 7:50 86% -
Do, 23.05. 7:40 88% -
Do, 23.05. 7:30 93% 9 km
Do, 23.05. 7:00 99% 3.4 km
Do, 23.05. 6:30 99% 0.6 km
Do, 23.05. 6:00 100% 0.2 km
Do, 23.05. 5:30 97% 100 m
Ortszeit Niederschlagsmenge Niederschlagsart
Do, 23.05. 8:00 0.0 l/m2 in 12 Std. -
Do, 23.05. 2:00 0.0 l/m2 in 6 Std. -
Mi, 22.05. 20:00 1 l/m2 in 12 Std. -
Mi, 22.05. 14:00 1 l/m2 in 6 Std. Regen
Mi, 22.05. 8:00 20 l/m2 in 12 Std. Regen
Mi, 22.05. 2:00 15 l/m2 in 6 Std. Regen
Di, 21.05. 20:00 7 l/m2 in 12 Std. Regen
Di, 21.05. 14:00 0.1 l/m2 in 6 Std. Regen
Ortszeit Niederschlagsmenge Niederschlagsart
Do, 23.05. 8:30 0.0 l/m2 in 1 Std. -
Do, 23.05. 8:20 keine Meldung -
Do, 23.05. 8:10 keine Meldung -
Do, 23.05. 8:00 0.0 l/m2 in 1 Std. -
Do, 23.05. 7:50 keine Meldung -
Do, 23.05. 7:40 keine Meldung -
Do, 23.05. 7:30 0.0 l/m2 in 1 Std. -
Do, 23.05. 7:00 0.0 l/m2 in 1 Std. -
Do, 23.05. 6:30 0.0 l/m2 in 1 Std. -
Do, 23.05. 6:00 0.0 l/m2 in 1 Std. -
Do, 23.05. 5:30 0.0 l/m2 in 1 Std. -
Ortszeit Stärke Spitze Richtung
km/h Bft. km/h Grad Sektor
Do, 23.05. 8:00 7 2 11 220° SW
Do, 23.05. 2:00 4 1 29 150° SO
Mi, 22.05. 20:00 13 3 44 300° NW
Mi, 22.05. 14:00 25 4 43 290° W
Mi, 22.05. 8:00 20 4 41 290° W
Mi, 22.05. 2:00 25 4 40 290° W
Di, 21.05. 20:00 19 3 37 280° W
Di, 21.05. 14:00 9 2 22 290° W
Ortszeit Stärke Spitze Richtung
km/h Bft. km/h Grad Sektor
Do, 23.05. 8:30 6 1 11 220° SW
Do, 23.05. 8:20 6 1 - 220° SW
Do, 23.05. 8:10 7 2 - 220° SW
Do, 23.05. 8:00 7 2 11 220° SW
Do, 23.05. 7:50 7 2 - 220° SW
Do, 23.05. 7:40 7 2 - 220° SW
Do, 23.05. 7:30 6 1 9 220° SW
Do, 23.05. 7:00 4 1 7 190° S
Do, 23.05. 6:30 4 1 7 210° SW
Do, 23.05. 6:00 4 1 4 180° S
Do, 23.05. 5:30 2 1 4 150° SO
Ortszeit Untergrenze Bedeckung Gattung
total tief tief mittel hoch
Do, 23.05. 8:00 - 0/8 0/8 - - -
Do, 23.05. 2:00 <30 m 8/8 0/8 - - -
Mi, 22.05. 20:00 690 m 2/8 2/8 - - -
Mi, 22.05. 14:00 510 m 8/8 8/8 - - -
Mi, 22.05. 8:00 180 m 8/8 8/8 - - -
Mi, 22.05. 2:00 150 m 8/8 8/8 - - -
Di, 21.05. 20:00 120 m 8/8 8/8 - - -
Di, 21.05. 14:00 450 m 8/8 8/8 - - -
Ortszeit Bedeckungsgrad in Achtel und Wolkenuntergrenze
Do, 23.05. 8:30 1(10500m)
Do, 23.05. 8:20 1(10500m)
Do, 23.05. 8:10 3(10500m)
Do, 23.05. 8:00 keine Wolken
Do, 23.05. 7:50 keine Wolken
Do, 23.05. 7:40 keine Wolken
Do, 23.05. 7:30 1(9000m) 4(10500m)
Do, 23.05. 7:00 4(9000m) 8(10500m)
Do, 23.05. 6:30 1(<30m) 7(9000m) 7(10500m)
Do, 23.05. 6:00 7(<30m) 8(9000m) 8(10500m)
Do, 23.05. 5:30 8(<30m) 8(9000m)
Ortszeit Luftdruck NN (hPa) Tendenz (hPa in 3 Std.)
Do, 23.05. 8:00 1019 + 0,4
Do, 23.05. 2:00 1019 + 0,3
Mi, 22.05. 20:00 1018 + 0,5
Mi, 22.05. 14:00 1017 + 1,4
Mi, 22.05. 8:00 1014 + 1,6
Mi, 22.05. 2:00 1011 + 0,7
Di, 21.05. 20:00 1009 + 1,1
Di, 21.05. 14:00 1008 + 0,8
Ortszeit Luftdruck NN (hPa) Tendenz (hPa in 3 Std.)
Do, 23.05. 8:30 1019 + 0,4
Do, 23.05. 8:20 1019 keine Meldung
Do, 23.05. 8:10 1019 keine Meldung
Do, 23.05. 8:00 1019 + 0,4
Do, 23.05. 7:50 1019 keine Meldung
Do, 23.05. 7:40 1019 keine Meldung
Do, 23.05. 7:30 1019 + 0,2
Do, 23.05. 7:00 1019 - 0,2
Do, 23.05. 6:30 1019 - 0,3
Do, 23.05. 6:00 1019 - 0,4
Do, 23.05. 5:30 1019 - 0,3
Ortszeit Schneehöhe (cm)
Do, 23.05. 8:00 -
Do, 23.05. 2:00 -
Mi, 22.05. 20:00 -
Mi, 22.05. 14:00 -
Mi, 22.05. 8:00 -
Mi, 22.05. 2:00 -
Di, 21.05. 20:00 -
Di, 21.05. 14:00 -
Ortszeit Schneehöhe (cm)
Do, 23.05. 8:30 -
Do, 23.05. 8:20 -
Do, 23.05. 8:10 -
Do, 23.05. 8:00 -
Do, 23.05. 7:50 -
Do, 23.05. 7:40 -
Do, 23.05. 7:30 -
Do, 23.05. 7:00 -
Do, 23.05. 6:30 -
Do, 23.05. 6:00 -
Do, 23.05. 5:30 -
Link zu dieser Seite / Seite empfehlen

Das Wetter in ...